sensor_id;sensor_type;location;lat;lon;timestamp;P1;durP1;ratioP1;P2;durP2;ratioP2
43756;SDS011;73222;41.866;12.462;2024-01-16T00:00:34;35.35;;;20.80;;
43756;SDS011;73222;41.866;12.462;2024-01-16T00:02:59;42.78;;;21.45;;
43756;SDS011;73222;41.866;12.462;2024-01-16T00:05:25;31.58;;;20.38;;
43756;SDS011;73222;41.866;12.462;2024-01-16T00:07:51;29.33;;;19.73;;
43756;SDS011;73222;41.866;12.462;2024-01-16T00:10:17;33.67;;;20.40;;
43756;SDS011;73222;41.866;12.462;2024-01-16T00:12:42;35.38;;;20.45;;
43756;SDS011;73222;41.866;12.462;2024-01-16T00:15:08;29.90;;;20.60;;
43756;SDS011;73222;41.866;12.462;2024-01-16T00:17:34;39.30;;;21.98;;
43756;SDS011;73222;41.866;12.462;2024-01-16T00:19:59;29.85;;;21.10;;
43756;SDS011;73222;41.866;12.462;2024-01-16T00:22:28;34.30;;;21.23;;
43756;SDS011;73222;41.866;12.462;2024-01-16T00:27:19;32.35;;;19.60;;
43756;SDS011;73222;41.866;12.462;2024-01-16T00:29:45;33.60;;;20.60;;
43756;SDS011;73222;41.866;12.462;2024-01-16T00:32:10;36.42;;;19.52;;
43756;SDS011;73222;41.866;12.462;2024-01-16T00:34:35;32.58;;;19.30;;
43756;SDS011;73222;41.866;12.462;2024-01-16T00:37:01;33.75;;;20.05;;
43756;SDS011;73222;41.866;12.462;2024-01-16T00:39:26;36.35;;;20.15;;
43756;SDS011;73222;41.866;12.462;2024-01-16T00:41:52;32.80;;;20.75;;
43756;SDS011;73222;41.866;12.462;2024-01-16T00:44:18;31.55;;;19.88;;
43756;SDS011;73222;41.866;12.462;2024-01-16T00:46:43;32.05;;;18.23;;
43756;SDS011;73222;41.866;12.462;2024-01-16T00:49:09;35.45;;;20.17;;
43756;SDS011;73222;41.866;12.462;2024-01-16T00:51:34;27.05;;;18.30;;
43756;SDS011;73222;41.866;12.462;2024-01-16T00:54:00;30.00;;;18.67;;
43756;SDS011;73222;41.866;12.462;2024-01-16T00:56:25;36.92;;;18.95;;
43756;SDS011;73222;41.866;12.462;2024-01-16T00:58:52;29.65;;;18.67;;
43756;SDS011;73222;41.866;12.462;2024-01-16T01:01:19;30.38;;;18.60;;
43756;SDS011;73222;41.866;12.462;2024-01-16T01:03:44;30.23;;;18.17;;
43756;SDS011;73222;41.866;12.462;2024-01-16T01:06:10;29.73;;;17.45;;
43756;SDS011;73222;41.866;12.462;2024-01-16T01:08:35;31.40;;;19.15;;
43756;SDS011;73222;41.866;12.462;2024-01-16T01:11:01;30.38;;;18.45;;
43756;SDS011;73222;41.866;12.462;2024-01-16T01:13:26;27.88;;;18.10;;
43756;SDS011;73222;41.866;12.462;2024-01-16T01:15:52;28.52;;;17.63;;
43756;SDS011;73222;41.866;12.462;2024-01-16T01:18:17;36.17;;;19.20;;
43756;SDS011;73222;41.866;12.462;2024-01-16T01:20:42;29.73;;;17.90;;
43756;SDS011;73222;41.866;12.462;2024-01-16T01:23:08;27.73;;;17.55;;
43756;SDS011;73222;41.866;12.462;2024-01-16T01:25:34;26.48;;;18.50;;
43756;SDS011;73222;41.866;12.462;2024-01-16T01:27:59;28.98;;;17.88;;
43756;SDS011;73222;41.866;12.462;2024-01-16T01:30:25;32.30;;;18.23;;
43756;SDS011;73222;41.866;12.462;2024-01-16T01:32:50;28.15;;;16.48;;
43756;SDS011;73222;41.866;12.462;2024-01-16T01:35:16;29.60;;;16.48;;
43756;SDS011;73222;41.866;12.462;2024-01-16T01:37:42;24.80;;;17.08;;
43756;SDS011;73222;41.866;12.462;2024-01-16T01:40:08;34.63;;;19.65;;
43756;SDS011;73222;41.866;12.462;2024-01-16T01:42:34;28.88;;;17.75;;
43756;SDS011;73222;41.866;12.462;2024-01-16T01:44:59;29.30;;;18.55;;
43756;SDS011;73222;41.866;12.462;2024-01-16T01:47:25;25.83;;;17.08;;
43756;SDS011;73222;41.866;12.462;2024-01-16T01:49:51;24.85;;;15.27;;
43756;SDS011;73222;41.866;12.462;2024-01-16T01:52:16;28.33;;;16.50;;
43756;SDS011;73222;41.866;12.462;2024-01-16T01:54:43;28.80;;;16.17;;
43756;SDS011;73222;41.866;12.462;2024-01-16T01:57:09;28.40;;;16.88;;
43756;SDS011;73222;41.866;12.462;2024-01-16T01:59:36;26.42;;;16.38;;
43756;SDS011;73222;41.866;12.462;2024-01-16T02:02:01;24.50;;;15.25;;
43756;SDS011;73222;41.866;12.462;2024-01-16T02:04:29;26.55;;;15.88;;
43756;SDS011;73222;41.866;12.462;2024-01-16T02:06:56;24.15;;;16.88;;
43756;SDS011;73222;41.866;12.462;2024-01-16T02:09:22;26.30;;;15.90;;
43756;SDS011;73222;41.866;12.462;2024-01-16T02:11:48;32.03;;;17.10;;
43756;SDS011;73222;41.866;12.462;2024-01-16T02:14:13;25.85;;;16.55;;
43756;SDS011;73222;41.866;12.462;2024-01-16T02:16:42;22.42;;;15.98;;
